Time;durP1;ratioP1;P1;durP2;ratioP2;P2;SDS_P1;SDS_P2;PMS_P1;PMS_P2;Temp;Humidity;BMP_temperature;BMP_pressure;BME280_temperature;BME280_humidity;BME280_pressure;Samples;Min_cycle;Max_cycle;Signal;HPM_P1;HPM_P2
2022/01/28 00:02:30;;;;;;;12.53;2.95;;;;;;;3.64;87.47;99811.81;1731664;81;25824;-63
2022/01/28 00:04:37;;;;;;;12.45;2.47;;;;;;;3.74;87.74;99866.29;1731849;80;98817;-63
2022/01/28 00:07:04;;;;;;;21.27;3.45;;;;;;;3.78;87.12;99826.86;1693063;83;25808;-63
2022/01/28 00:09:30;;;;;;;19.37;3.40;;;;;;;3.81;86.94;99817.04;1733018;80;98990;-64
2022/01/28 00:11:57;;;;;;;15.53;2.92;;;;;;;3.85;86.62;99825.77;1728331;80;26344;-66
2022/01/28 00:14:42;;;;;;;13.40;2.50;;;;;;;3.83;86.22;99819.19;1734650;81;25966;-65
2022/01/28 00:38:31;;;;;;;14.40;2.60;;;;;;;3.96;82.33;99817.50;1732407;81;26044;-62
2022/01/28 00:40:56;;;;;;;18.05;2.65;;;;;;;3.95;82.27;99837.84;1732123;79;98349;-63
2022/01/28 00:43:23;;;;;;;16.27;2.33;;;;;;;3.94;82.04;99837.43;1732079;81;27460;-63
2022/01/28 00:45:49;;;;;;;19.05;2.83;;;;;;;3.96;82.68;99816.17;1695012;82;98524;-63
2022/01/28 00:48:15;;;;;;;10.45;2.83;;;;;;;3.91;82.72;99837.52;1699168;82;26585;-63
2022/01/28 00:50:42;;;;;;;10.65;2.02;;;;;;;3.88;82.44;99846.89;1731218;81;26713;-65
2022/01/28 00:53:11;;;;;;;13.18;2.62;;;;;;;3.86;82.11;99853.56;1692173;82;99271;-64
2022/01/28 00:55:39;;;;;;;10.72;2.37;;;;;;;3.84;82.60;99845.23;1733504;81;28123;-64
2022/01/28 00:58:05;;;;;;;11.55;2.40;;;;;;;3.79;82.84;99828.59;1682144;81;99104;-65
2022/01/28 01:00:31;;;;;;;8.48;1.60;;;;;;;3.74;82.24;99860.99;1734156;81;25795;-66
2022/01/28 01:02:58;;;;;;;16.37;2.17;;;;;;;3.72;82.86;99845.59;1691428;82;25764;-66
2022/01/28 01:05:24;;;;;;;19.07;2.67;;;;;;;3.67;83.01;99854.13;1734433;81;98269;-67
2022/01/28 01:07:50;;;;;;;14.28;2.20;;;;;;;3.63;82.95;99843.20;1719097;80;27518;-68
2022/01/28 01:10:17;;;;;;;13.48;2.33;;;;;;;3.62;83.25;99832.18;1704093;82;98413;-67
2022/01/28 01:12:46;;;;;;;14.00;2.00;;;;;;;3.53;83.66;99855.38;1731139;81;26456;-68
2022/01/28 01:15:18;;;;;;;12.78;1.72;;;;;;;3.51;83.91;99862.49;1732034;81;25758;-66
2022/01/28 01:18:34;;;;;;;17.98;2.33;;;;;;;3.50;83.95;99869.16;1731004;80;98700;-69
2022/01/28 01:20:34;;;;;;;10.50;1.80;;;;;;;3.48;84.15;99873.63;1720574;81;27477;-69
2022/01/28 01:22:53;;;;;;;9.55;1.37;;;;;;;3.48;84.39;99863.90;1728315;81;98523;-68
2022/01/28 01:25:23;;;;;;;12.28;2.42;;;;;;;3.42;84.63;99872.47;1737200;80;25767;-68
2022/01/28 01:27:48;;;;;;;10.80;1.62;;;;;;;3.39;84.79;99873.42;1730103;81;98912;-70
2022/01/28 01:30:14;;;;;;;10.25;1.80;;;;;;;3.33;85.00;99853.72;1736439;80;25870;-70
2022/01/28 01:32:40;;;;;;;6.83;1.95;;;;;;;3.29;85.33;99860.00;1736561;80;27449;-68
2022/01/28 01:35:07;;;;;;;9.23;1.72;;;;;;;3.25;85.71;99903.36;1735613;81;97325;-67
2022/01/28 01:37:33;;;;;;;10.50;1.42;;;;;;;3.20;85.95;99890.23;1733379;80;25882;-66
2022/01/28 01:39:59;;;;;;;7.50;1.62;;;;;;;3.17;86.17;99883.70;1730750;81;98627;-68
2022/01/28 01:42:52;;;;;;;9.73;1.92;;;;;;;3.17;86.39;99883.70;1697398;82;26473;-67
2022/01/28 01:52:56;;;;;;;14.45;2.60;;;;;;;3.00;87.38;99920.31;1729146;81;98281;-70
2022/01/28 01:55:23;;;;;;;9.18;1.77;;;;;;;2.93;87.77;99890.47;1695701;83;25757;-70
2022/01/28 01:57:49;;;;;;;4.08;1.57;;;;;;;2.91;88.02;99925.37;1726105;80;98442;-68
2022/01/28 02:00:17;;;;;;;15.55;1.95;;;;;;;2.89;88.17;99899.39;1729993;81;25858;-70
2022/01/28 02:02:43;;;;;;;15.63;2.15;;;;;;;2.87;88.26;99897.23;1692150;83;26465;-69
2022/01/28 02:05:09;;;;;;;10.05;1.77;;;;;;;2.89;88.49;99942.20;1735340;80;98288;-71
2022/01/28 02:07:37;;;;;;;6.70;2.00;;;;;;;2.89;88.68;99909.98;1689792;83;25954;-68
2022/01/28 02:10:04;;;;;;;10.13;1.92;;;;;;;2.88;88.86;99929.41;1730113;81;98407;-68
2022/01/28 02:12:49;;;;;;;10.48;1.98;;;;;;;2.87;89.05;99902.53;1681847;83;26299;-68
2022/01/28 02:15:16;;;;;;;11.33;2.12;;;;;;;2.87;89.39;99937.39;1733231;80;26536;-70
2022/01/28 02:17:44;;;;;;;9.80;1.20;;;;;;;2.84;89.46;99917.16;1736383;80;98127;-69
2022/01/28 02:20:25;;;;;;;7.80;1.60;;;;;;;2.85;89.65;99920.67;1740727;80;25764;-69
2022/01/28 02:22:49;;;;;;;8.40;1.62;;;;;;;2.80;89.67;99918.59;1697539;82;98255;-69
2022/01/28 02:25:31;;;;;;;6.15;1.05;;;;;;;2.77;89.86;99928.80;1691129;83;25959;-68
2022/01/28 02:28:03;;;;;;;5.83;0.85;;;;;;;2.77;90.11;99958.36;1726749;81;98758;-68
2022/01/28 02:30:29;;;;;;;6.80;1.45;;;;;;;2.74;90.13;99948.71;1697942;83;26394;-67
2022/01/28 02:33:01;;;;;;;8.83;1.47;;;;;;;2.71;90.30;99924.97;1728636;81;25725;-68
2022/01/28 02:35:23;;;;;;;7.30;1.92;;;;;;;2.72;90.41;99922.73;1725979;81;98289;-67
2022/01/28 02:37:49;;;;;;;6.50;1.30;;;;;;;2.71;90.49;99938.20;1729460;81;26454;-66
2022/01/28 02:40:15;;;;;;;7.80;1.02;;;;;;;2.70;90.60;99947.49;1736052;81;98155;-67
2022/01/28 02:42:56;;;;;;;8.23;1.52;;;;;;;2.73;90.76;99964.63;1737400;80;25802;-70
2022/01/28 02:45:25;;;;;;;4.37;1.42;;;;;;;2.71;90.88;99933.36;1676451;83;25950;-66
2022/01/28 02:47:45;;;;;;;12.03;2.45;;;;;;;2.70;90.96;99925.87;1730683;81;98004;-68
2022/01/28 02:50:11;;;;;;;14.00;2.02;;;;;;;2.74;91.06;99927.54;1697495;82;26869;-68
2022/01/28 02:52:44;;;;;;;8.23;2.17;;;;;;;2.75;91.16;99950.91;1733999;80;98492;-67
2022/01/28 02:55:10;;;;;;;10.65;1.60;;;;;;;2.75;91.24;99942.52;1721862;81;26544;-67
2022/01/28 02:57:37;;;;;;;11.75;1.67;;;;;;;2.74;91.40;99935.48;1687493;83;98609;-67
2022/01/28 03:00:02;;;;;;;14.35;2.20;;;;;;;2.75;91.43;99916.05;1729864;80;27449;-67
2022/01/28 03:02:28;;;;;;;8.05;1.75;;;;;;;2.77;91.50;99973.78;1730324;81;25869;-68
2022/01/28 03:07:32;;;;;;;14.78;2.17;;;;;;;2.79;91.63;99942.86;1730773;80;25763;-66
2022/01/28 03:12:36;;;;;;;19.27;2.80;;;;;;;2.82;91.79;99936.17;1733992;81;28108;-64
2022/01/28 03:15:05;;;;;;;19.92;4.33;;;;;;;2.85;91.85;99945.37;1690791;83;25796;-64
2022/01/28 03:22:43;;;;;;;16.25;2.27;;;;;;;3.03;91.92;99932.15;1735292;80;98290;-67
2022/01/28 03:25:10;;;;;;;18.82;2.30;;;;;;;3.09;91.80;99968.20;1735989;80;27439;-65
2022/01/28 03:27:50;;;;;;;13.83;2.80;;;;;;;3.15;91.60;99968.05;1732838;81;98598;-67
2022/01/28 03:30:05;;;;;;;20.65;3.47;;;;;;;3.19;91.69;99958.67;1735926;81;25785;-66
2022/01/28 03:32:31;;;;;;;22.50;3.02;;;;;;;3.22;91.40;99970.97;1736332;81;26397;-66
2022/01/28 03:34:57;;;;;;;18.60;3.12;;;;;;;3.28;91.21;99969.95;1737558;80;98426;-67
2022/01/28 03:37:23;;;;;;;16.93;2.98;;;;;;;3.31;90.93;99976.05;1688058;83;27417;-65
2022/01/28 03:39:50;;;;;;;11.05;3.37;;;;;;;3.35;90.68;99965.79;1724590;81;98536;-67
2022/01/28 03:42:16;;;;;;;30.05;3.40;;;;;;;3.38;90.58;99972.34;1736133;81;26236;-65
2022/01/28 03:44:42;;;;;;;19.17;3.30;;;;;;;3.37;90.28;100001.05;1699304;82;25883;-67
2022/01/28 03:47:07;;;;;;;23.77;3.95;;;;;;;3.41;89.67;99976.23;1729924;81;98578;-68
2022/01/28 03:49:33;;;;;;;23.83;2.58;;;;;;;3.50;89.33;99985.28;1696637;83;27696;-67
2022/01/28 03:51:59;;;;;;;28.55;3.72;;;;;;;3.50;89.03;99979.98;1729255;81;98810;-67
2022/01/28 03:54:25;;;;;;;27.42;3.58;;;;;;;3.50;88.89;99983.08;1696109;83;25789;-69
2022/01/28 03:56:51;;;;;;;19.82;3.15;;;;;;;3.51;88.13;100005.56;1737343;80;26486;-64
2022/01/28 03:59:17;;;;;;;26.02;3.12;;;;;;;3.55;88.35;100012.52;1688494;83;98664;-68
2022/01/28 04:01:45;;;;;;;19.35;3.20;;;;;;;3.57;87.89;99985.98;1739771;81;27413;-67
2022/01/28 04:04:32;;;;;;;20.00;3.77;;;;;;;3.57;87.63;100045.61;1690880;83;98376;-66
2022/01/28 04:11:56;;;;;;;12.20;2.47;;;;;;;3.57;87.45;100004.08;1643086;81;26054;-67
2022/01/28 04:19:35;;;;;;;21.75;3.45;;;;;;;3.66;86.84;99990.19;1734142;81;25803;-67
2022/01/28 04:22:01;;;;;;;20.57;3.62;;;;;;;3.68;86.40;100003.81;1687595;83;99032;-65
2022/01/28 04:24:27;;;;;;;23.77;3.83;;;;;;;3.73;85.89;100000.59;1740662;80;26641;-65
2022/01/28 04:26:53;;;;;;;17.90;2.55;;;;;;;3.72;85.92;99999.30;1736048;80;27431;-64
2022/01/28 04:29:19;;;;;;;17.50;3.25;;;;;;;3.78;85.41;100004.45;1737889;80;98469;-65
2022/01/28 04:31:47;;;;;;;20.82;3.67;;;;;;;3.79;85.30;99995.59;1738301;80;25867;-66
2022/01/28 04:34:14;;;;;;;20.05;3.58;;;;;;;3.80;84.84;100012.77;1741088;80;98459;-65
2022/01/28 04:37:36;;;;;;;18.17;2.90;;;;;;;3.81;84.61;100027.77;1738370;80;25698;-66
2022/01/28 04:39:29;;;;;;;27.67;3.33;;;;;;;3.83;84.16;100021.98;1725131;80;27469;-65
2022/01/28 04:41:59;;;;;;;24.67;2.77;;;;;;;3.86;84.54;100036.93;1737738;80;99669;-63
2022/01/28 04:44:23;;;;;;;20.55;2.80;;;;;;;3.86;84.07;100028.98;1760263;79;26632;-66
2022/01/28 04:46:56;;;;;;;23.55;2.83;;;;;;;3.87;83.99;100043.52;1760902;79;98572;-64
2022/01/28 04:49:25;;;;;;;21.40;3.35;;;;;;;3.87;83.97;100051.47;1762524;79;25861;-65
2022/01/28 04:57:03;;;;;;;17.87;2.92;;;;;;;3.85;83.62;100057.27;1758322;79;25893;-63
2022/01/28 05:02:35;;;;;;;18.82;2.83;;;;;;;3.86;82.88;100058.14;1759213;79;25929;-66
2022/01/28 05:04:58;;;;;;;16.80;2.58;;;;;;;3.83;82.75;100074.13;1762076;79;98696;-66
2022/01/28 05:12:52;;;;;;;22.32;3.33;;;;;;;3.71;82.79;100085.02;1739144;80;25767;-64
2022/01/28 05:28:04;;;;;;;31.27;3.98;;;;;;;3.47;83.51;100145.64;1719281;79;98769;-65
2022/01/28 05:30:30;;;;;;;28.55;3.05;;;;;;;3.46;83.74;100145.22;1762044;79;27489;-66
2022/01/28 05:32:56;;;;;;;20.37;3.37;;;;;;;3.43;83.93;100153.69;1747283;80;25818;-67
2022/01/28 05:35:22;;;;;;;25.72;4.85;;;;;;;3.43;83.88;100166.94;1746479;80;98564;-67
2022/01/28 05:37:48;;;;;;;32.75;4.33;;;;;;;3.41;84.05;100169.62;1746467;81;26323;-66
2022/01/28 05:40:14;;;;;;;22.60;3.12;;;;;;;3.39;84.19;100183.80;1746044;80;98565;-68
2022/01/28 05:42:40;;;;;;;30.62;3.83;;;;;;;3.37;84.31;100187.81;1746529;81;27664;-65
2022/01/28 05:45:09;;;;;;;18.85;4.47;;;;;;;3.36;84.52;100186.06;1752236;80;25795;-68
2022/01/28 05:47:36;;;;;;;10.13;2.40;;;;;;;3.37;84.61;100166.61;1741748;80;98564;-65
2022/01/28 05:50:05;;;;;;;24.72;3.22;;;;;;;3.37;84.57;100179.86;1746763;80;26335;-68
2022/01/28 05:52:32;;;;;;;26.37;5.25;;;;;;;3.38;84.68;100196.63;1749368;81;98545;-67
2022/01/28 05:54:59;;;;;;;25.90;3.92;;;;;;;3.41;84.63;100205.83;1745859;80;27249;-67
2022/01/28 05:57:25;;;;;;;18.42;3.85;;;;;;;3.43;84.76;100209.32;1743179;81;98703;-68
2022/01/28 05:59:51;;;;;;;21.77;3.12;;;;;;;3.45;84.56;100195.14;1748603;81;25827;-66
2022/01/28 06:02:18;;;;;;;22.95;4.20;;;;;;;3.45;84.66;100213.69;1747913;80;26460;-67
2022/01/28 06:04:45;;;;;;;25.85;4.33;;;;;;;3.47;84.32;100214.52;1746103;80;98562;-68
2022/01/28 06:07:12;;;;;;;20.10;3.62;;;;;;;3.51;84.34;100229.91;1744291;81;28267;-67
2022/01/28 06:09:37;;;;;;;20.52;4.50;;;;;;;3.52;84.45;100246.22;1746106;80;97869;-68
2022/01/28 06:12:04;;;;;;;23.30;4.22;;;;;;;3.54;84.02;100239.11;1746009;80;25922;-68
2022/01/28 06:14:30;;;;;;;32.35;4.10;;;;;;;3.55;84.23;100236.88;1745866;81;25806;-66
2022/01/28 06:16:56;;;;;;;31.73;4.03;;;;;;;3.54;84.01;100248.39;1740085;81;98610;-68
2022/01/28 06:19:22;;;;;;;15.45;3.10;;;;;;;3.55;83.85;100250.13;1746374;81;27464;-66
2022/01/28 06:21:47;;;;;;;17.42;2.60;;;;;;;3.55;83.79;100262.93;1745505;80;98649;-67
2022/01/28 06:24:13;;;;;;;23.40;4.37;;;;;;;3.53;83.94;100262.54;1749840;80;25267;-67
2022/01/28 06:26:40;;;;;;;26.82;3.72;;;;;;;3.51;84.01;100287.74;1742617;80;25878;-66
2022/01/28 06:29:06;;;;;;;26.68;3.25;;;;;;;3.52;83.87;100278.89;1744216;80;98645;-66
2022/01/28 06:31:33;;;;;;;21.85;3.37;;;;;;;3.52;83.97;100268.74;1750150;80;27433;-67
2022/01/28 06:33:59;;;;;;;35.90;4.80;;;;;;;3.50;83.93;100309.84;1766915;80;98794;-68
2022/01/28 06:36:24;;;;;;;30.02;4.42;;;;;;;3.51;83.62;100289.07;1757987;80;25714;-67
2022/01/28 06:38:50;;;;;;;16.67;3.08;;;;;;;3.50;83.93;100307.20;1758196;80;26551;-66
2022/01/28 06:41:16;;;;;;;31.35;4.30;;;;;;;3.48;83.85;100306.35;1760296;80;98591;-67
2022/01/28 06:43:42;;;;;;;27.52;3.55;;;;;;;3.49;83.91;100302.80;1759217;80;27613;-67
2022/01/28 06:46:08;;;;;;;18.60;3.45;;;;;;;3.51;84.01;100306.30;1753025;80;98569;-65
2022/01/28 06:48:34;;;;;;;16.57;3.47;;;;;;;3.54;83.99;100310.66;1760013;80;26380;-68
2022/01/28 06:51:00;;;;;;;24.92;4.17;;;;;;;3.55;83.77;100308.43;1757190;80;25889;-67
2022/01/28 06:53:26;;;;;;;18.77;3.98;;;;;;;3.55;84.03;100320.35;1757420;79;98519;-69
2022/01/28 06:55:51;;;;;;;21.42;3.75;;;;;;;3.55;84.06;100338.45;1754787;79;27366;-67
2022/01/28 06:58:17;;;;;;;16.02;2.87;;;;;;;3.56;84.26;100335.34;1754684;80;98628;-64
2022/01/28 07:00:43;;;;;;;25.20;3.98;;;;;;;3.54;84.11;100339.35;1731941;81;26446;-65
2022/01/28 07:03:12;;;;;;;19.90;3.17;;;;;;;3.53;83.99;100348.20;1696020;83;25838;-65
2022/01/28 07:05:39;;;;;;;27.30;4.00;;;;;;;3.55;84.10;100364.95;1724258;80;98288;-65
2022/01/28 07:08:06;;;;;;;27.20;4.20;;;;;;;3.54;84.17;100363.20;1733502;81;28451;-65
2022/01/28 07:10:32;;;;;;;24.77;3.70;;;;;;;3.53;84.33;100376.48;1733479;80;97802;-65
2022/01/28 07:12:59;;;;;;;22.02;4.30;;;;;;;3.54;84.24;100379.55;1723095;80;25801;-65
2022/01/28 07:15:27;;;;;;;18.02;3.42;;;;;;;3.58;84.05;100376.81;1719973;81;98754;-65
2022/01/28 07:18:02;;;;;;;22.13;4.15;;;;;;;3.60;84.32;100390.03;1734874;80;25743;-64
2022/01/28 07:20:33;;;;;;;28.10;4.12;;;;;;;3.60;84.35;100401.96;1690540;83;27921;-64
2022/01/28 07:23:00;;;;;;;21.33;5.25;;;;;;;3.63;84.05;100388.66;1730816;81;98779;-65
2022/01/28 07:25:26;;;;;;;22.42;3.77;;;;;;;3.65;84.03;100405.85;1728192;81;25899;-65
2022/01/28 07:27:52;;;;;;;23.70;3.47;;;;;;;3.67;83.95;100400.07;1730821;81;98620;-66
2022/01/28 07:30:19;;;;;;;24.63;4.55;;;;;;;3.69;83.94;100402.23;1690291;83;25828;-65
2022/01/28 07:32:45;;;;;;;21.30;3.05;;;;;;;3.71;83.98;100425.16;1738030;80;27392;-66
2022/01/28 07:35:10;;;;;;;20.37;2.80;;;;;;;3.74;84.03;100432.18;1739795;80;98625;-65
2022/01/28 07:37:37;;;;;;;21.05;2.95;;;;;;;3.73;83.71;100430.44;1701462;82;25847;-66
2022/01/28 07:40:05;;;;;;;19.02;3.40;;;;;;;3.74;83.53;100444.98;1738635;80;98692;-66
2022/01/28 07:42:35;;;;;;;25.62;5.03;;;;;;;3.74;83.38;100448.96;1699020;81;25550;-65
2022/01/28 07:45:02;;;;;;;28.30;4.23;;;;;;;3.72;83.58;100456.52;1737350;80;27459;-66
2022/01/28 07:47:28;;;;;;;26.65;3.47;;;;;;;3.72;83.52;100477.72;1690995;82;98571;-65
2022/01/28 07:49:54;;;;;;;20.85;2.83;;;;;;;3.71;83.23;100460.95;1742250;80;25999;-65
2022/01/28 07:52:20;;;;;;;19.35;3.17;;;;;;;3.72;83.53;100476.40;1697584;82;98649;-65
2022/01/28 07:54:49;;;;;;;16.80;4.00;;;;;;;3.72;83.67;100475.08;1761285;79;25798;-64
2022/01/28 07:57:14;;;;;;;17.02;2.98;;;;;;;3.71;83.69;100493.20;1761766;79;27462;-65
2022/01/28 07:59:39;;;;;;;16.75;3.25;;;;;;;3.69;83.74;100489.25;1762143;79;98225;-65
2022/01/28 08:02:06;;;;;;;24.85;3.87;;;;;;;3.66;83.85;100513.16;1759430;79;26024;-66
2022/01/28 08:04:32;;;;;;;19.30;3.95;;;;;;;3.66;83.78;100503.89;1759504;79;98595;-64
2022/01/28 08:06:58;;;;;;;29.37;4.55;;;;;;;3.65;83.74;100541.02;1765375;79;25737;-64
2022/01/28 08:09:27;;;;;;;16.77;3.20;;;;;;;3.66;83.78;100541.45;1753878;79;98776;-65
2022/01/28 08:11:53;;;;;;;23.25;3.72;;;;;;;3.61;83.93;100531.37;1759357;79;26707;-63
2022/01/28 08:14:18;;;;;;;27.80;3.85;;;;;;;3.57;84.00;100543.80;1763242;79;26330;-65
2022/01/28 08:16:44;;;;;;;20.45;3.85;;;;;;;3.51;84.04;100548.75;1758875;79;99024;-66
2022/01/28 08:19:10;;;;;;;17.35;2.98;;;;;;;3.46;84.18;100558.99;1758417;79;25903;-66
2022/01/28 08:21:36;;;;;;;17.20;3.87;;;;;;;3.43;84.35;100552.42;1755770;79;109363;-66
2022/01/28 08:24:02;;;;;;;20.75;4.25;;;;;;;3.41;84.42;100560.84;1729826;80;26721;-65
2022/01/28 08:26:29;;;;;;;27.07;4.08;;;;;;;3.41;84.45;100573.64;1697552;81;25832;-67
2022/01/28 08:28:56;;;;;;;15.03;3.10;;;;;;;3.39;84.63;100555.56;1733707;80;98579;-66
2022/01/28 08:31:23;;;;;;;17.73;3.10;;;;;;;3.38;84.75;100571.48;1700206;82;25794;-68
2022/01/28 08:33:50;;;;;;;24.50;3.20;;;;;;;3.39;84.82;100582.50;1739750;80;98696;-67
2022/01/28 08:36:16;;;;;;;24.65;3.52;;;;;;;3.41;84.96;100581.58;1732840;80;25756;-67
2022/01/28 08:38:46;;;;;;;21.73;4.00;;;;;;;3.40;85.02;100586.91;1690534;83;25936;-68
2022/01/28 08:41:13;;;;;;;17.62;4.15;;;;;;;3.42;85.14;100601.88;1757020;79;98485;-67
2022/01/28 08:43:42;;;;;;;22.37;4.20;;;;;;;3.43;85.26;100602.31;1754093;79;25798;-68
2022/01/28 08:46:09;;;;;;;22.40;3.55;;;;;;;3.46;85.35;100606.23;1757531;79;98636;-67
2022/01/28 08:48:35;;;;;;;23.10;3.62;;;;;;;3.49;85.40;100614.14;1760543;79;25949;-65
2022/01/28 08:51:01;;;;;;;21.95;4.05;;;;;;;3.53;85.49;100635.72;1759438;79;25972;-67
2022/01/28 08:53:27;;;;;;;16.45;3.45;;;;;;;3.56;85.49;100622.88;1757749;79;98492;-65
2022/01/28 08:55:52;;;;;;;18.62;3.65;;;;;;;3.58;85.57;100642.28;1758389;79;25793;-65
2022/01/28 08:58:18;;;;;;;16.37;3.33;;;;;;;3.62;85.55;100628.53;1757994;79;98452;-64
2022/01/28 09:00:47;;;;;;;20.95;3.37;;;;;;;3.63;85.65;100641.76;1760163;79;25903;-65
2022/01/28 09:03:15;;;;;;;25.05;3.27;;;;;;;3.66;85.64;100648.79;1752701;79;25699;-66
2022/01/28 09:05:41;;;;;;;16.12;3.50;;;;;;;3.66;85.64;100662.04;1731670;80;98302;-64
2022/01/28 09:08:09;;;;;;;21.27;3.77;;;;;;;3.67;85.45;100669.97;1734068;80;25776;-64
2022/01/28 09:10:43;;;;;;;14.53;2.87;;;;;;;3.66;85.40;100668.22;1732882;80;98618;-66
2022/01/28 09:15:41;;;;;;;31.23;4.65;;;;;;;3.74;85.30;100674.28;1752738;78;98716;-65
2022/01/28 09:18:12;;;;;;;24.90;3.52;;;;;;;3.82;85.45;100680.34;1758465;79;25965;-66
2022/01/28 09:20:39;;;;;;;17.37;3.75;;;;;;;3.91;85.30;100678.00;1758800;79;25729;-65
2022/01/28 09:23:07;;;;;;;22.80;3.02;;;;;;;3.94;85.41;100692.54;1754143;79;98562;-65
2022/01/28 09:25:35;;;;;;;12.90;3.12;;;;;;;3.95;85.35;100714.18;1755490;79;25710;-64
2022/01/28 09:28:02;;;;;;;12.70;3.40;;;;;;;3.93;84.88;100726.58;1757793;79;98708;-67
2022/01/28 09:30:29;;;;;;;15.58;4.33;;;;;;;3.95;84.88;100716.83;1736384;80;25861;-66
2022/01/28 09:32:57;;;;;;;17.73;3.70;;;;;;;4.00;85.01;100724.27;1730699;80;25876;-63
2022/01/28 09:35:22;;;;;;;20.00;3.58;;;;;;;4.08;84.67;100749.34;1698085;83;98679;-63
2022/01/28 09:37:50;;;;;;;18.98;3.87;;;;;;;4.10;84.67;100733.83;1726574;81;25775;-66
2022/01/28 09:40:17;;;;;;;11.50;2.62;;;;;;;4.10;84.68;100730.30;1726824;81;98562;-67
2022/01/28 09:42:45;;;;;;;20.00;3.55;;;;;;;4.11;84.77;100740.89;1731298;81;25781;-68
2022/01/28 09:45:16;;;;;;;19.20;2.85;;;;;;;4.17;84.84;100750.53;1723180;81;25790;-65
2022/01/28 09:47:46;;;;;;;14.50;2.92;;;;;;;4.17;84.84;100758.04;1728854;81;98465;-69
2022/01/28 09:50:10;;;;;;;13.05;3.25;;;;;;;4.19;84.86;100757.56;1683428;83;25730;-69
2022/01/28 09:52:37;;;;;;;19.82;3.22;;;;;;;4.23;84.66;100762.37;1720011;81;98550;-65
2022/01/28 09:55:04;;;;;;;18.30;2.70;;;;;;;4.26;84.49;100765.43;1735029;80;26327;-65
2022/01/28 09:57:31;;;;;;;20.57;2.65;;;;;;;4.26;84.27;100769.41;1738407;80;98731;-70
2022/01/28 09:59:58;;;;;;;10.03;2.40;;;;;;;4.28;84.12;100780.88;1700891;81;27443;-65
2022/01/28 10:02:48;;;;;;;12.00;2.90;;;;;;;4.34;84.16;100778.12;1729400;81;25902;-65
2022/01/28 10:05:31;;;;;;;21.02;3.42;;;;;;;4.39;84.27;100779.80;1716320;80;98513;-66
2022/01/28 10:08:10;;;;;;;9.33;2.50;;;;;;;4.43;83.98;100812.48;1727055;81;26283;-64
2022/01/28 10:11:08;;;;;;;19.35;3.60;;;;;;;4.40;83.48;100800.14;1729141;79;98420;-67
2022/01/28 10:13:43;;;;;;;13.65;2.62;;;;;;;4.36;83.58;100803.73;1731923;81;27447;-66
2022/01/28 10:16:27;;;;;;;14.87;3.40;;;;;;;4.37;83.76;100792.22;1683432;83;98742;-69
2022/01/28 10:19:02;;;;;;;26.62;4.65;;;;;;;4.34;83.39;100820.58;1728844;81;25799;-68
2022/01/28 10:21:38;;;;;;;17.35;3.08;;;;;;;4.33;83.68;100817.50;1688993;83;98641;-67
2022/01/28 10:24:27;;;;;;;19.52;3.20;;;;;;;4.35;83.44;100812.59;1729204;81;26082;-66
2022/01/28 10:27:09;;;;;;;15.80;2.67;;;;;;;4.40;83.21;100809.87;1727477;81;27405;-68
2022/01/28 10:29:41;;;;;;;21.10;3.42;;;;;;;4.37;82.99;100814.78;1684239;83;98567;-66
2022/01/28 10:32:14;;;;;;;17.15;3.17;;;;;;;4.35;82.16;100840.46;1725992;81;25860;-66
2022/01/28 10:34:50;;;;;;;13.30;3.10;;;;;;;4.36;82.49;100825.42;1734147;80;98654;-66
2022/01/28 10:37:30;;;;;;;9.85;2.17;;;;;;;4.42;82.89;100829.30;1733051;80;25832;-66
2022/01/28 10:40:09;;;;;;;23.38;3.08;;;;;;;4.42;82.23;100820.89;1734649;80;98439;-66
2022/01/28 10:42:51;;;;;;;17.12;2.70;;;;;;;4.41;81.87;100835.52;1731990;80;26668;-66
2022/01/28 10:45:17;;;;;;;9.13;2.35;;;;;;;4.45;82.42;100835.89;1726973;80;25707;-67
2022/01/28 10:47:46;;;;;;;17.82;3.15;;;;;;;4.49;81.92;100845.56;1723114;80;98116;-66
2022/01/28 10:50:34;;;;;;;8.60;2.52;;;;;;;4.53;82.09;100834.88;1736541;80;25808;-67
2022/01/28 10:53:10;;;;;;;19.05;2.42;;;;;;;4.59;81.96;100847.17;1735850;80;98462;-68
2022/01/28 10:55:54;;;;;;;13.40;3.12;;;;;;;4.62;81.68;100867.48;1732995;80;25963;-67
2022/01/28 10:58:27;;;;;;;16.07;2.83;;;;;;;4.63;81.92;100851.98;1731203;80;98549;-68
2022/01/28 11:00:59;;;;;;;12.30;2.45;;;;;;;4.68;81.78;100866.06;1738291;80;25790;-67
2022/01/28 11:03:27;;;;;;;8.85;2.30;;;;;;;4.72;81.69;100905.82;1728786;80;98730;-65
2022/01/28 11:05:58;;;;;;;17.40;2.85;;;;;;;4.74;81.88;100871.28;1732370;80;27392;-66
2022/01/28 11:08:26;;;;;;;6.55;2.08;;;;;;;4.73;81.72;100895.63;1698001;82;25809;-65
2022/01/28 11:10:52;;;;;;;16.57;2.50;;;;;;;4.71;80.71;100892.12;1703617;82;98817;-64
2022/01/28 11:13:18;;;;;;;13.62;2.33;;;;;;;4.67;80.93;100881.12;1699358;82;26304;-65
2022/01/28 11:15:45;;;;;;;15.83;3.33;;;;;;;4.67;80.84;100882.89;1694365;82;98540;-65
2022/01/28 11:18:12;;;;;;;14.70;2.67;;;;;;;4.63;81.07;100890.03;1696835;82;27352;-65
2022/01/28 11:20:49;;;;;;;14.65;3.35;;;;;;;4.62;80.86;100896.23;1700045;82;25524;-65
2022/01/28 11:23:36;;;;;;;18.80;2.62;;;;;;;4.56;81.20;100901.19;1685496;83;98477;-64
2022/01/28 11:26:26;;;;;;;13.62;2.58;;;;;;;4.50;81.18;100900.41;1733135;80;25870;-63
2022/01/28 11:28:55;;;;;;;12.20;2.62;;;;;;;4.43;80.88;100906.70;1706464;80;98650;-65
2022/01/28 11:31:52;;;;;;;11.93;3.37;;;;;;;4.37;80.54;100911.64;1718492;80;27486;-66
2022/01/28 11:34:27;;;;;;;15.78;2.50;;;;;;;4.37;80.77;100914.30;1731442;80;98605;-69
2022/01/28 11:36:57;;;;;;;11.35;2.22;;;;;;;4.42;80.80;100914.23;1732381;80;25907;-66
2022/01/28 11:39:37;;;;;;;13.00;2.62;;;;;;;4.46;80.85;100951.33;1731057;80;98803;-65
2022/01/28 11:42:14;;;;;;;9.53;2.37;;;;;;;4.49;80.60;100925.19;1737351;80;25760;-67
2022/01/28 11:44:54;;;;;;;16.65;3.08;;;;;;;4.47;80.67;100939.81;1730340;80;27344;-65
2022/01/28 11:47:30;;;;;;;15.25;3.00;;;;;;;4.45;80.60;100930.98;1733564;80;98541;-66
2022/01/28 11:50:20;;;;;;;16.73;3.52;;;;;;;4.43;80.74;100939.42;1738334;80;25835;-64
2022/01/28 11:52:50;;;;;;;13.35;2.67;;;;;;;4.42;80.56;100952.71;1733522;80;99013;-64
2022/01/28 11:55:24;;;;;;;11.15;1.87;;;;;;;4.43;80.35;100951.81;1740914;80;26523;-65
2022/01/28 11:57:57;;;;;;;8.93;2.75;;;;;;;4.46;80.41;100947.80;1736776;80;98853;-65
2022/01/28 12:00:44;;;;;;;10.20;2.87;;;;;;;4.55;80.44;100949.88;1732118;80;25853;-65
2022/01/28 12:03:31;;;;;;;8.00;2.37;;;;;;;4.61;80.12;100950.23;1741636;80;25970;-65
2022/01/28 12:06:09;;;;;;;14.15;2.92;;;;;;;4.68;79.89;100959.87;1737745;80;98156;-68
2022/01/28 12:08:39;;;;;;;13.40;2.85;;;;;;;4.74;80.21;100959.78;1735902;80;25865;-66
2022/01/28 12:11:08;;;;;;;8.95;1.92;;;;;;;4.81;80.14;100956.59;1731475;80;98506;-64
2022/01/28 12:14:03;;;;;;;12.65;2.30;;;;;;;4.82;79.63;100957.89;1741504;80;25866;-66
2022/01/28 12:16:30;;;;;;;9.68;3.02;;;;;;;4.79;79.68;100959.72;1736728;80;99077;-67
2022/01/28 12:18:58;;;;;;;13.72;2.30;;;;;;;4.78;79.70;100961.49;1735948;80;25931;-64
2022/01/28 12:21:31;;;;;;;10.48;2.25;;;;;;;4.81;79.03;100988.00;1736704;80;27349;-69
2022/01/28 12:24:23;;;;;;;17.67;2.12;;;;;;;4.79;78.47;101001.75;1737859;80;98263;-64
2022/01/28 12:27:11;;;;;;;9.58;2.08;;;;;;;4.73;78.34;100987.69;1732648;80;25885;-65
2022/01/28 12:29:49;;;;;;;16.48;2.47;;;;;;;4.71;78.94;100988.16;1729625;80;98844;-65
2022/01/28 12:32:23;;;;;;;14.55;2.90;;;;;;;4.72;79.26;101001.41;1736143;80;25810;-66
2022/01/28 12:34:49;;;;;;;10.40;3.50;;;;;;;4.69;79.03;101009.42;1731076;80;99191;-65
2022/01/28 12:37:21;;;;;;;12.07;2.50;;;;;;;4.65;79.01;101001.06;1730844;81;27450;-66
2022/01/28 12:39:51;;;;;;;11.87;2.90;;;;;;;4.65;78.94;100998.41;1728140;81;105006;-67
2022/01/28 12:42:23;;;;;;;6.12;2.33;;;;;;;4.62;78.98;101012.17;1731194;81;25853;-66
2022/01/28 12:44:53;;;;;;;4.65;1.98;;;;;;;4.58;78.61;101002.05;1728297;81;25827;-65
2022/01/28 12:47:20;;;;;;;10.80;2.02;;;;;;;4.59;78.49;101017.08;1731612;81;98209;-66
2022/01/28 12:49:59;;;;;;;11.93;2.22;;;;;;;4.48;78.24;101009.70;1727745;81;28160;-64
2022/01/28 12:52:25;;;;;;;7.28;2.20;;;;;;;4.41;78.30;101038.09;1690724;83;98479;-66
2022/01/28 12:54:50;;;;;;;8.23;1.80;;;;;;;4.47;78.62;101014.13;1734989;81;25825;-65
2022/01/28 12:57:19;;;;;;;14.07;3.85;;;;;;;4.51;78.81;101028.23;1693538;83;25878;-65
2022/01/28 12:59:48;;;;;;;5.50;1.95;;;;;;;4.58;79.12;101017.09;1727005;81;97913;-66